createdAt,value
2023-05-20T00:00:32.230Z,99756.28
2023-05-20T00:03:46.776Z,99748.31
2023-05-20T00:06:59.488Z,99751.83
2023-05-20T00:10:13.190Z,99758.94
2023-05-20T00:13:25.600Z,99753.41
2023-05-20T00:16:38.137Z,99752.55
2023-05-20T00:19:50.729Z,99762.45
2023-05-20T00:23:03.166Z,99756.41
2023-05-20T00:29:15.591Z,99757.03
2023-05-20T00:32:27.853Z,99759.69
2023-05-20T00:35:40.759Z,99752.44
2023-05-20T00:38:52.983Z,99746.99
2023-05-20T00:45:06.236Z,99746.05
2023-05-20T00:48:18.916Z,99740.73
2023-05-20T00:51:31.701Z,99732.63
2023-05-20T00:54:44.935Z,99736.00
2023-05-20T00:57:58.325Z,99731.51
2023-05-20T01:01:11.083Z,99739.61
2023-05-20T01:04:23.908Z,99735.41
2023-05-20T01:07:36.690Z,99735.64
2023-05-20T01:23:02.187Z,99725.27
2023-05-20T01:26:17.353Z,99727.20
2023-05-20T01:29:33.105Z,99718.24
2023-05-20T01:32:50.665Z,99716.57
2023-05-20T01:36:04.049Z,99717.52
2023-05-20T01:39:17.562Z,99719.95
2023-05-20T01:42:32.969Z,99713.91
2023-05-20T01:45:48.033Z,99715.13
2023-05-20T01:49:00.988Z,99712.33
2023-05-20T01:52:14.328Z,99708.82
2023-05-20T01:55:27.454Z,99699.17
2023-05-20T01:58:40.522Z,99718.00
2023-05-20T02:01:53.524Z,99715.13
2023-05-20T02:05:05.921Z,99707.88
2023-05-20T02:11:18.606Z,99716.92
2023-05-20T02:14:31.123Z,99714.39
2023-05-20T02:17:44.295Z,99718.73
2023-05-20T02:20:56.940Z,99720.30
2023-05-20T02:24:09.734Z,99724.64
2023-05-20T02:27:22.238Z,99724.64
2023-05-20T02:30:35.130Z,99722.96
2023-05-20T02:33:47.880Z,99721.03
2023-05-20T02:43:00.481Z,99716.80
2023-05-20T02:46:13.358Z,99727.42
2023-05-20T02:49:25.931Z,99724.77
2023-05-20T02:52:40.155Z,99718.38
2023-05-20T02:55:54.761Z,99726.57
2023-05-20T02:59:08.645Z,99718.50
2023-05-20T03:02:21.456Z,99727.92
2023-05-20T03:05:36.161Z,99722.37
2023-05-20T03:08:48.548Z,99720.44
2023-05-20T03:12:00.892Z,99725.49
2023-05-20T03:15:15.575Z,99728.28
2023-05-20T03:18:28.046Z,99730.81
2023-05-20T03:21:40.598Z,99734.19
2023-05-20T03:24:53.672Z,99739.02
2023-05-20T03:28:06.865Z,99739.28
2023-05-20T03:31:21.570Z,99727.42
2023-05-20T03:34:35.593Z,99733.83
2023-05-20T03:37:48.317Z,99731.05
2023-05-20T03:41:01.057Z,99729.38
2023-05-20T03:44:13.823Z,99731.17
2023-05-20T03:47:26.505Z,99734.30
2023-05-20T03:50:39.304Z,99730.79
2023-05-20T03:53:51.969Z,99736.60
2023-05-20T03:57:04.946Z,99735.75
2023-05-20T04:00:20.577Z,99735.75
2023-05-20T04:03:32.943Z,99725.97
2023-05-20T04:06:45.640Z,99725.11
2023-05-20T04:09:59.612Z,99724.27
2023-05-20T04:13:12.163Z,99723.77
2023-05-20T04:16:25.360Z,99721.02
2023-05-20T04:19:38.389Z,99730.44
2023-05-20T04:25:51.142Z,99726.07
2023-05-20T04:29:04.468Z,99726.66
2023-05-20T04:32:18.923Z,99728.59
2023-05-20T04:35:35.526Z,99720.39
2023-05-20T04:47:49.625Z,99734.87
2023-05-20T04:51:02.401Z,99727.02
2023-05-20T04:54:18.051Z,99727.02
2023-05-20T04:57:31.477Z,99730.99
2023-05-20T05:00:44.158Z,99731.26
2023-05-20T05:03:56.712Z,99732.21
2023-05-20T05:07:09.909Z,99739.69
2023-05-20T05:10:25.440Z,99739.47
2023-05-20T05:13:37.866Z,99738.61
2023-05-20T05:16:52.077Z,99745.38
2023-05-20T05:20:05.855Z,99739.47
2023-05-20T05:23:18.363Z,99744.52
2023-05-20T05:26:31.179Z,99736.80
2023-05-20T05:29:43.693Z,99738.97
2023-05-20T05:32:56.570Z,99739.69
2023-05-20T05:36:10.143Z,99738.20
2023-05-20T05:39:22.665Z,99743.03
2023-05-20T05:42:35.307Z,99741.09
2023-05-20T05:45:48.307Z,99741.58
2023-05-20T05:49:00.822Z,99747.02
2023-05-20T05:55:16.483Z,99736.82
2023-05-20T05:58:29.422Z,99738.63
2023-05-20T06:01:41.951Z,99739.97
2023-05-20T06:04:55.347Z,99730.48
2023-05-20T06:08:07.658Z,99737.11
2023-05-20T06:11:21.960Z,99727.89
2023-05-20T06:14:34.484Z,99737.58
2023-05-20T06:17:47.404Z,99738.75
2023-05-20T06:21:05.301Z,99734.85
2023-05-20T06:24:17.977Z,99737.52
2023-05-20T06:27:30.632Z,99728.67
2023-05-20T06:30:43.481Z,99731.23
2023-05-20T06:33:56.226Z,99725.63
2023-05-20T06:37:09.140Z,99734.09
2023-05-20T06:40:22.200Z,99725.97
2023-05-20T06:43:35.663Z,99734.98
2023-05-20T06:46:53.081Z,99725.51
2023-05-20T06:50:05.874Z,99725.55
2023-05-20T06:53:18.405Z,99724.18
2023-05-20T06:56:30.964Z,99734.06
2023-05-20T06:59:44.819Z,99718.97
2023-05-20T07:02:58.796Z,99706.53
2023-05-20T07:06:12.246Z,99707.81
2023-05-20T07:09:24.709Z,99697.14
2023-05-20T07:12:38.109Z,99704.61
2023-05-20T07:15:54.115Z,99697.34
2023-05-20T07:19:07.097Z,99695.84
2023-05-20T07:22:20.270Z,99688.55
2023-05-20T07:25:41.063Z,99685.92
2023-05-20T07:28:54.029Z,99691.11
2023-05-20T07:32:06.864Z,99685.39
2023-05-20T07:35:20.192Z,99680.05
2023-05-20T07:38:32.615Z,99681.31
2023-05-20T07:41:47.278Z,99681.05
2023-05-20T07:44:59.757Z,99685.55
2023-05-20T07:48:13.355Z,99691.17
2023-05-20T07:51:26.746Z,99697.21
2023-05-20T07:54:41.131Z,99691.16
2023-05-20T07:57:53.936Z,99682.73
2023-05-20T08:01:07.920Z,99671.22
2023-05-20T08:04:20.981Z,99683.70
2023-05-20T08:07:33.781Z,99684.70
2023-05-20T08:10:46.400Z,99683.56
2023-05-20T08:13:59.059Z,99675.25
2023-05-20T08:17:13.265Z,99679.75
2023-05-20T08:20:26.650Z,99670.56
2023-05-20T08:23:40.573Z,99667.19
2023-05-20T08:26:53.427Z,99656.38
2023-05-20T08:30:08.548Z,99675.36
2023-05-20T08:33:22.112Z,99671.17
2023-05-20T08:36:35.030Z,99664.52
2023-05-20T08:39:49.494Z,99658.47
2023-05-20T08:43:02.196Z,99661.95
2023-05-20T08:46:18.429Z,99664.31
2023-05-20T08:49:31.796Z,99671.80
2023-05-20T08:52:47.419Z,99675.86
2023-05-20T08:56:04.591Z,99674.16
2023-05-20T08:59:17.454Z,99673.84
2023-05-20T09:02:29.893Z,99666.67
2023-05-20T09:05:42.609Z,99662.17
2023-05-20T09:08:57.102Z,99659.73
2023-05-20T09:12:11.513Z,99661.70
2023-05-20T09:15:24.080Z,99663.74
2023-05-20T09:18:37.402Z,99667.53
2023-05-20T09:21:52.773Z,99658.37
2023-05-20T09:25:05.658Z,99659.28
2023-05-20T09:28:18.247Z,99654.19
2023-05-20T09:31:35.901Z,99660.00
2023-05-20T09:34:48.580Z,99662.92
2023-05-20T09:38:03.686Z,99658.58
2023-05-20T09:41:18.298Z,99652.63
2023-05-20T09:44:31.830Z,99641.17
2023-05-20T09:47:45.274Z,99640.47
2023-05-20T09:50:58.920Z,99642.06
2023-05-20T09:54:12.408Z,99641.22
2023-05-20T09:57:25.298Z,99640.44
2023-05-20T10:00:38.460Z,99640.72
2023-05-20T10:03:51.817Z,99645.56
2023-05-20T10:07:41.046Z,99641.18
2023-05-20T10:10:53.164Z,99640.03
2023-05-20T10:14:28.212Z,99634.23
2023-05-20T10:17:46.721Z,99637.30
2023-05-20T10:20:59.370Z,99628.19
2023-05-20T10:24:18.483Z,99628.63
2023-05-20T10:27:30.825Z,99636.98
2023-05-20T10:30:44.436Z,99626.42
2023-05-20T10:33:59.231Z,99621.86
2023-05-20T10:37:12.088Z,99619.51
2023-05-20T10:40:27.622Z,99618.21
2023-05-20T10:43:40.106Z,99627.34
2023-05-20T10:50:07.878Z,99624.36
2023-05-20T10:56:38.435Z,99629.39
2023-05-20T10:59:51.582Z,99626.21
2023-05-20T11:03:04.852Z,99617.72
2023-05-20T11:06:23.292Z,99618.03
2023-05-20T11:09:35.711Z,99611.00
2023-05-20T11:12:48.445Z,99608.31
2023-05-20T11:16:01.773Z,99602.77
2023-05-20T11:19:17.490Z,99595.69
2023-05-20T11:22:30.271Z,99588.09
2023-05-20T11:25:42.694Z,99568.55
2023-05-20T11:28:55.570Z,99568.22
2023-05-20T11:32:08.522Z,99562.66
2023-05-20T11:35:30.951Z,99557.69
2023-05-20T11:38:45.188Z,99541.40
2023-05-20T11:41:58.420Z,99548.67
2023-05-20T11:45:12.800Z,99549.80
2023-05-20T11:48:25.835Z,99546.70
2023-05-20T11:51:38.918Z,99543.34
2023-05-20T11:54:51.595Z,99539.70
2023-05-20T11:58:04.833Z,99533.66
2023-05-20T12:01:22.457Z,99533.14
2023-05-20T12:04:32.586Z,99531.92
2023-05-20T12:07:45.131Z,99527.60
2023-05-20T12:10:58.059Z,99526.91
2023-05-20T12:14:11.085Z,99527.44
2023-05-20T12:17:23.659Z,99507.03
2023-05-20T12:20:37.870Z,99515.40
2023-05-20T12:23:50.716Z,99512.50
2023-05-20T12:27:04.325Z,99499.40
2023-05-20T12:30:19.886Z,99506.14
2023-05-20T12:33:32.328Z,99499.70
2023-05-20T12:36:44.811Z,99495.87
2023-05-20T12:39:57.431Z,99484.64
2023-05-20T12:43:11.588Z,99469.88
2023-05-20T12:46:24.954Z,99472.42
2023-05-20T12:49:37.723Z,99462.19
2023-05-20T12:52:50.276Z,99466.38
2023-05-20T12:56:03.068Z,99451.56
2023-05-20T12:59:18.636Z,99447.63
2023-05-20T13:02:31.284Z,99432.84
2023-05-20T13:05:44.082Z,99437.41
2023-05-20T13:08:56.820Z,99442.61
2023-05-20T13:12:09.795Z,99440.75
2023-05-20T13:15:22.452Z,99430.92
2023-05-20T13:18:34.930Z,99424.44
2023-05-20T13:21:47.366Z,99429.02
2023-05-20T13:24:59.834Z,99422.11
2023-05-20T13:28:15.385Z,99423.41
2023-05-20T13:31:28.112Z,99419.86
2023-05-20T13:34:40.883Z,99412.52
2023-05-20T13:37:53.429Z,99410.01
2023-05-20T13:41:06.076Z,99405.39
2023-05-20T13:44:18.807Z,99401.26
2023-05-20T13:47:31.379Z,99404.19
2023-05-20T13:50:43.888Z,99392.89
2023-05-20T13:53:56.361Z,99392.72
2023-05-20T13:57:09.488Z,99391.08
2023-05-20T14:00:23.485Z,99391.08
2023-05-20T14:03:37.608Z,99384.85
2023-05-20T14:06:50.305Z,99381.30
2023-05-20T14:10:02.865Z,99382.14
2023-05-20T14:13:15.483Z,99378.63
2023-05-20T14:16:28.483Z,99377.16
2023-05-20T14:19:41.325Z,99376.09
2023-05-20T14:22:53.844Z,99368.80
2023-05-20T14:26:06.572Z,99369.20
2023-05-20T14:29:19.027Z,99367.95
2023-05-20T14:32:32.599Z,99365.87
2023-05-20T14:35:45.298Z,99367.15
2023-05-20T14:38:57.988Z,99367.11
2023-05-20T14:42:11.337Z,99368.36
2023-05-20T14:45:24.219Z,99376.92
2023-05-20T14:48:36.823Z,99364.40
2023-05-20T14:51:49.291Z,99366.92
2023-05-20T14:55:01.899Z,99367.98
2023-05-20T14:58:15.545Z,99365.47
2023-05-20T15:01:28.060Z,99357.97
2023-05-20T15:04:41.061Z,99354.81
2023-05-20T15:07:53.560Z,99353.80
2023-05-20T15:11:06.123Z,99347.73
2023-05-20T15:14:18.775Z,99345.03
2023-05-20T15:17:31.461Z,99336.27
2023-05-20T15:20:44.669Z,99332.94
2023-05-20T15:23:57.657Z,99341.06
2023-05-20T15:27:10.795Z,99335.45
2023-05-20T15:30:23.917Z,99326.91
2023-05-20T15:33:36.757Z,99330.45
2023-05-20T15:36:49.490Z,99329.39
2023-05-20T15:40:02.160Z,99325.85
2023-05-20T15:43:15.703Z,99330.86
2023-05-20T15:46:28.373Z,99319.58
2023-05-20T15:49:40.954Z,99313.30
2023-05-20T15:52:53.581Z,99320.41
2023-05-20T15:56:06.617Z,99314.16
2023-05-20T15:59:19.175Z,99328.09
2023-05-20T16:02:36.020Z,99321.22
2023-05-20T16:05:48.036Z,99324.54
2023-05-20T16:09:00.940Z,99323.25
2023-05-20T16:12:16.290Z,99319.50
2023-05-20T16:15:30.794Z,99311.57
2023-05-20T16:18:43.373Z,99307.58
2023-05-20T16:21:55.872Z,99321.34
2023-05-20T16:25:11.027Z,99312.36
2023-05-20T16:28:23.957Z,99324.20
2023-05-20T16:31:36.454Z,99320.40
2023-05-20T16:34:49.246Z,99318.67
2023-05-20T16:38:01.822Z,99313.05
2023-05-20T16:41:17.155Z,99319.27
2023-05-20T16:44:29.657Z,99316.73
2023-05-20T16:47:42.284Z,99319.17
2023-05-20T16:50:54.946Z,99313.13
2023-05-20T16:54:08.538Z,99308.69
2023-05-20T16:57:21.352Z,99307.83
2023-05-20T17:00:34.989Z,99308.39
2023-05-20T17:03:47.947Z,99310.20
2023-05-20T17:07:01.877Z,99308.48
2023-05-20T17:10:16.328Z,99312.78
2023-05-20T17:13:28.852Z,99312.02
2023-05-20T17:16:41.806Z,99312.42
2023-05-20T17:19:55.100Z,99322.52
2023-05-20T17:23:07.851Z,99322.45
2023-05-20T17:26:20.801Z,99314.31
2023-05-20T17:29:33.565Z,99318.63
2023-05-20T17:32:46.268Z,99323.95
2023-05-20T17:35:58.918Z,99317.47
2023-05-20T17:39:11.715Z,99317.77
2023-05-20T17:42:24.396Z,99311.28
2023-05-20T17:45:36.922Z,99310.08
2023-05-20T17:48:49.509Z,99316.88
2023-05-20T17:52:02.223Z,99316.18
2023-05-20T17:55:15.696Z,99318.98
2023-05-20T17:58:28.626Z,99312.66
2023-05-20T18:01:41.964Z,99322.55
2023-05-20T18:04:54.697Z,99319.50
2023-05-20T18:08:07.277Z,99318.56
2023-05-20T18:11:22.009Z,99325.09
2023-05-20T18:14:34.499Z,99313.10
2023-05-20T18:17:47.060Z,99315.20
2023-05-20T18:20:59.828Z,99321.52
2023-05-20T18:24:15.001Z,99318.06
2023-05-20T18:27:27.698Z,99320.19
2023-05-20T18:30:40.964Z,99327.69
2023-05-20T18:33:53.660Z,99342.91
2023-05-20T18:37:06.428Z,99339.98
2023-05-20T18:40:20.844Z,99348.14
2023-05-20T18:43:33.405Z,99345.98
2023-05-20T18:46:46.332Z,99351.62
2023-05-20T18:50:01.883Z,99352.33
2023-05-20T18:53:14.393Z,99354.57
2023-05-20T18:56:27.144Z,99361.84
2023-05-20T18:59:39.848Z,99360.86
2023-05-20T19:02:52.471Z,99357.92
2023-05-20T19:06:05.459Z,99359.66
2023-05-20T19:09:18.108Z,99366.73
2023-05-20T19:12:31.048Z,99361.75
2023-05-20T19:15:43.505Z,99354.53
2023-05-20T19:18:56.230Z,99368.03
2023-05-20T19:22:09.360Z,99365.38
2023-05-20T19:25:22.323Z,99376.95
2023-05-20T19:28:35.008Z,99375.77
2023-05-20T19:31:47.608Z,99380.83
2023-05-20T19:35:00.226Z,99384.87
2023-05-20T19:38:12.802Z,99380.36
2023-05-20T19:41:26.355Z,99375.14
2023-05-20T19:44:38.883Z,99366.29
2023-05-20T19:47:54.838Z,99382.05
2023-05-20T19:51:08.079Z,99368.63
2023-05-20T19:54:21.239Z,99369.31
2023-05-20T19:57:33.967Z,99371.67
2023-05-20T20:00:46.644Z,99374.17
2023-05-20T20:03:59.033Z,99374.00
2023-05-20T20:07:12.130Z,99377.70
2023-05-20T20:10:24.859Z,99390.95
2023-05-20T20:13:37.405Z,99387.95
2023-05-20T20:16:50.510Z,99384.23
2023-05-20T20:20:03.712Z,99379.40
2023-05-20T20:23:16.577Z,99386.77
2023-05-20T20:26:30.918Z,99383.72
2023-05-20T20:29:43.520Z,99385.67
2023-05-20T20:32:56.182Z,99386.19
2023-05-20T20:36:09.188Z,99386.50
2023-05-20T20:39:25.290Z,99383.32
2023-05-20T20:42:38.857Z,99381.13
2023-05-20T20:45:53.368Z,99387.62
2023-05-20T20:49:06.200Z,99394.47
2023-05-20T20:52:19.124Z,99393.94
2023-05-20T20:55:31.625Z,99393.59
2023-05-20T20:58:45.173Z,99392.88
2023-05-20T21:01:57.988Z,99390.47
2023-05-20T21:05:11.340Z,99395.11
2023-05-20T21:08:25.867Z,99398.59
2023-05-20T21:11:41.345Z,99392.38
2023-05-20T21:14:53.957Z,99395.06
2023-05-20T21:18:06.764Z,99393.87
2023-05-20T21:21:21.521Z,99388.00
2023-05-20T21:24:34.104Z,99395.64
2023-05-20T21:27:46.911Z,99403.13
2023-05-20T21:30:59.428Z,99403.08
2023-05-20T21:34:12.169Z,99399.20
2023-05-20T21:37:24.733Z,99398.78
2023-05-20T21:40:37.353Z,99397.70
2023-05-20T21:43:49.891Z,99397.80
2023-05-20T21:47:02.452Z,99396.27
2023-05-20T21:50:17.808Z,99401.72
2023-05-20T21:53:30.255Z,99391.70
2023-05-20T21:56:43.305Z,99394.02
2023-05-20T21:59:57.261Z,99390.66
2023-05-20T22:03:09.850Z,99395.77
2023-05-20T22:06:22.581Z,99388.27
2023-05-20T22:09:35.427Z,99387.06
2023-05-20T22:12:48.049Z,99392.73
2023-05-20T22:16:01.686Z,99388.81
2023-05-20T22:19:15.345Z,99387.31
2023-05-20T22:22:27.974Z,99384.63
2023-05-20T22:25:40.551Z,99392.25
2023-05-20T22:28:53.367Z,99391.20
2023-05-20T22:32:05.979Z,99389.98
2023-05-20T22:35:19.294Z,99386.30
2023-05-20T22:38:31.929Z,99390.43
2023-05-20T22:41:44.438Z,99373.26
2023-05-20T22:44:56.936Z,99369.90
2023-05-20T22:48:10.056Z,99368.89
2023-05-20T22:51:22.622Z,99368.45
2023-05-20T22:54:35.165Z,99368.81
2023-05-20T22:57:47.678Z,99363.95
2023-05-20T23:01:00.498Z,99367.83
2023-05-20T23:04:13.698Z,99372.78
2023-05-20T23:07:29.711Z,99366.06
2023-05-20T23:10:42.105Z,99362.17
2023-05-20T23:13:54.476Z,99363.88
2023-05-20T23:17:07.085Z,99359.02
2023-05-20T23:20:22.515Z,99355.41
2023-05-20T23:23:35.045Z,99348.81
2023-05-20T23:26:47.385Z,99351.20
2023-05-20T23:30:00.163Z,99349.66
2023-05-20T23:33:13.287Z,99350.63
2023-05-20T23:36:25.855Z,99349.22
2023-05-20T23:39:38.177Z,99345.49
2023-05-20T23:42:51.117Z,99353.35
2023-05-20T23:46:03.747Z,99347.80
2023-05-20T23:49:18.251Z,99353.67
2023-05-20T23:52:31.034Z,99343.75
2023-05-20T23:55:45.460Z,99343.06
2023-05-20T23:58:58.107Z,99340.67
